Time;durP1;ratioP1;P1;durP2;ratioP2;P2;SDS_P1;SDS_P2;PMS_P1;PMS_P2;Temp;Humidity;BMP_temperature;BMP_pressure;BME280_temperature;BME280_humidity;BME280_pressure;Samples;Min_cycle;Max_cycle;Signal;HPM_P1;HPM_P2
2022/07/12 00:02:08;;;;;;;7.03;2.20;;;;;;;15.32;81.90;101659.22;5042407;28;20737;-78
2022/07/12 00:04:34;;;;;;;7.33;2.10;;;;;;;15.27;81.83;101659.50;5035338;28;20943;-80
2022/07/12 00:07:01;;;;;;;8.07;2.70;;;;;;;15.25;81.77;101656.91;5032309;28;20217;-77
2022/07/12 00:09:29;;;;;;;6.73;2.40;;;;;;;15.23;82.04;101650.78;5031761;28;20293;-78
2022/07/12 00:11:57;;;;;;;14.67;2.53;;;;;;;15.18;81.65;101654.78;5036567;28;20203;-78
2022/07/12 00:14:23;;;;;;;15.50;2.70;;;;;;;15.12;81.51;101664.06;5041342;28;20213;-79
2022/07/12 00:16:51;;;;;;;16.37;3.07;;;;;;;15.08;80.85;101662.53;5035187;28;20231;-79
2022/07/12 00:19:17;;;;;;;11.60;3.10;;;;;;;15.03;81.12;101661.16;5030065;28;20280;-78
2022/07/12 00:21:44;;;;;;;8.50;3.00;;;;;;;14.99;81.00;101657.81;5035320;28;20206;-76
2022/07/12 00:24:11;;;;;;;14.00;2.57;;;;;;;14.96;81.51;101660.69;5032063;28;20889;-78
2022/07/12 00:26:39;;;;;;;7.00;2.70;;;;;;;14.97;81.85;101669.59;5031855;28;20206;-78
2022/07/12 00:29:06;;;;;;;4.57;2.20;;;;;;;14.97;82.53;101670.47;5035944;28;20211;-78
2022/07/12 00:31:33;;;;;;;8.40;2.47;;;;;;;15.01;83.07;101676.50;5032982;28;20309;-78
2022/07/12 00:34:00;;;;;;;4.37;2.23;;;;;;;15.01;83.75;101666.63;5042867;28;20209;-78
2022/07/12 00:36:26;;;;;;;13.43;3.00;;;;;;;15.02;83.51;101668.34;5035216;28;20241;-79
2022/07/12 00:38:53;;;;;;;11.80;2.67;;;;;;;15.00;82.80;101672.94;5035380;28;20209;-78
2022/07/12 00:41:20;;;;;;;32.57;3.70;;;;;;;14.94;82.73;101670.66;5035944;28;20648;-78
2022/07/12 00:43:48;;;;;;;25.63;3.90;;;;;;;14.84;81.70;101667.72;5043840;28;20210;-80
2022/07/12 00:46:15;;;;;;;18.53;3.70;;;;;;;14.77;81.80;101665.53;5037039;28;20238;-80
2022/07/12 00:48:42;;;;;;;14.03;3.13;;;;;;;14.73;82.52;101674.72;5035894;28;20684;-80
2022/07/12 00:51:10;;;;;;;15.63;3.60;;;;;;;14.71;82.79;101669.44;5040924;28;20210;-80
2022/07/12 00:53:36;;;;;;;16.40;3.30;;;;;;;14.72;83.30;101671.19;5028544;28;20235;-80
2022/07/12 00:56:04;;;;;;;6.80;2.20;;;;;;;14.75;83.55;101670.97;5037211;28;20269;-79
2022/07/12 00:58:31;;;;;;;7.63;2.87;;;;;;;14.76;83.81;101661.13;5028004;28;20210;-78
2022/07/12 01:00:59;;;;;;;9.67;2.77;;;;;;;14.79;84.44;101666.28;5030175;28;20202;-79
2022/07/12 01:03:27;;;;;;;14.90;2.80;;;;;;;14.79;84.58;101655.56;5030188;28;20210;-78
2022/07/12 01:05:54;;;;;;;14.60;2.87;;;;;;;14.80;84.05;101657.28;5033722;28;20222;-80
2022/07/12 01:08:21;;;;;;;14.10;2.90;;;;;;;14.77;83.56;101652.13;5032137;28;20579;-79
2022/07/12 01:10:49;;;;;;;18.37;3.63;;;;;;;14.73;83.47;101654.13;5036060;28;20217;-80
2022/07/12 01:13:17;;;;;;;16.87;3.40;;;;;;;14.71;83.92;101657.88;5030387;28;20210;-78
2022/07/12 01:15:44;;;;;;;18.60;3.70;;;;;;;14.68;83.99;101658.09;5037577;28;20230;-79
2022/07/12 01:18:14;;;;;;;19.53;3.40;;;;;;;14.68;84.17;101652.72;5034874;28;20213;-78
2022/07/12 01:20:41;;;;;;;18.13;4.13;;;;;;;14.70;84.94;101656.13;5032692;28;20202;-77
2022/07/12 01:23:10;;;;;;;11.90;3.30;;;;;;;14.71;85.13;101650.69;5030644;28;20579;-79
2022/07/12 01:25:37;;;;;;;10.93;2.80;;;;;;;14.71;85.17;101649.81;5030853;28;20224;-77
2022/07/12 01:28:04;;;;;;;16.03;3.80;;;;;;;14.72;85.05;101654.22;5033598;28;20203;-79
2022/07/12 01:30:31;;;;;;;18.20;3.33;;;;;;;14.71;85.24;101647.13;5034015;28;20202;-79
2022/07/12 01:32:59;;;;;;;16.63;3.37;;;;;;;14.71;85.32;101652.50;5039203;28;20205;-82
2022/07/12 01:35:26;;;;;;;15.07;3.50;;;;;;;14.69;85.11;101641.88;5036769;28;20234;-79
2022/07/12 01:37:53;;;;;;;18.00;3.63;;;;;;;14.70;85.58;101653.47;5035860;28;20203;-82
2022/07/12 01:40:21;;;;;;;14.10;2.97;;;;;;;14.71;85.49;101647.13;5032004;28;20208;-81
2022/07/12 01:42:50;;;;;;;12.17;3.03;;;;;;;14.72;85.59;101643.50;5033047;28;20207;-82
2022/07/12 01:45:17;;;;;;;15.83;3.20;;;;;;;14.73;86.06;101650.59;5033062;28;20230;-80
2022/07/12 01:47:43;;;;;;;22.93;3.93;;;;;;;14.73;85.80;101655.94;5031910;28;20712;-81
2022/07/12 01:50:11;;;;;;;22.03;2.90;;;;;;;14.72;85.66;101652.41;5032560;28;20696;-80
2022/07/12 01:52:40;;;;;;;25.37;3.93;;;;;;;14.69;85.69;101639.19;5035732;28;20202;-81
2022/07/12 01:55:07;;;;;;;17.30;3.20;;;;;;;14.66;85.44;101649.28;5032168;28;20218;-80
2022/07/12 01:57:36;;;;;;;25.43;3.20;;;;;;;14.63;85.44;101647.66;5036418;28;20253;-81
2022/07/12 02:00:05;;;;;;;15.80;3.03;;;;;;;14.60;85.88;101634.44;5039177;28;20651;-80
2022/07/12 02:02:33;;;;;;;19.13;4.00;;;;;;;14.59;85.91;101633.56;5035486;28;20241;-80
2022/07/12 02:05:00;;;;;;;16.93;3.40;;;;;;;14.59;86.02;101628.22;5032180;28;20240;-81
2022/07/12 02:07:27;;;;;;;20.00;4.30;;;;;;;14.58;86.24;101626.50;5035214;28;20210;-80
2022/07/12 02:09:54;;;;;;;18.37;3.83;;;;;;;14.60;86.53;101631.75;5031535;28;20661;-80
2022/07/12 02:12:21;;;;;;;15.07;3.70;;;;;;;14.62;87.00;101628.97;5033375;28;20202;-80
2022/07/12 02:14:49;;;;;;;8.40;3.27;;;;;;;14.63;87.26;101634.25;5035109;28;20237;-80
2022/07/12 02:17:15;;;;;;;9.73;3.20;;;;;;;14.65;87.17;101626.97;5028892;28;20225;-79
2022/07/12 02:19:42;;;;;;;19.47;3.87;;;;;;;14.65;87.32;101626.97;5029009;28;20317;-79
2022/07/12 02:22:08;;;;;;;11.73;3.10;;;;;;;14.68;87.28;101634.81;5033002;28;20206;-80
2022/07/12 02:24:35;;;;;;;19.07;4.23;;;;;;;14.69;87.42;101633.00;5037288;28;20221;-82
2022/07/12 02:27:01;;;;;;;20.37;4.03;;;;;;;14.65;86.89;101628.78;5031551;28;20202;-80
2022/07/12 02:29:28;;;;;;;15.80;3.30;;;;;;;14.59;86.92;101633.56;5027172;28;20209;-82
2022/07/12 02:31:56;;;;;;;18.93;3.33;;;;;;;14.57;87.35;101629.28;5034245;28;20212;-81
2022/07/12 02:34:22;;;;;;;19.27;3.27;;;;;;;14.55;87.37;101626.69;5036254;28;20568;-80
2022/07/12 02:36:49;;;;;;;14.27;3.77;;;;;;;14.55;87.65;101634.72;5036142;28;20218;-82
2022/07/12 02:39:15;;;;;;;22.50;3.53;;;;;;;14.53;87.69;101628.59;5042529;28;20219;-81
2022/07/12 02:41:42;;;;;;;16.70;4.37;;;;;;;14.54;87.70;101638.38;5039354;28;20210;-81
2022/07/12 02:44:08;;;;;;;18.53;4.30;;;;;;;14.55;88.39;101645.44;5031047;28;20198;-82
2022/07/12 02:46:35;;;;;;;25.00;3.83;;;;;;;14.56;88.63;101639.13;5033297;28;20214;-80
2022/07/12 02:49:04;;;;;;;10.53;3.57;;;;;;;14.57;88.40;101640.84;5025804;28;20261;-81
2022/07/12 02:51:30;;;;;;;15.93;3.63;;;;;;;14.57;88.75;101635.50;5027761;28;20653;-80
2022/07/12 02:53:57;;;;;;;11.13;3.80;;;;;;;14.57;88.89;101640.00;5033232;28;20206;-81
2022/07/12 02:56:23;;;;;;;20.77;3.93;;;;;;;14.56;88.79;101633.78;5038941;28;20229;-80
2022/07/12 02:58:50;;;;;;;8.50;3.77;;;;;;;14.55;88.97;101642.78;5029420;28;20219;-80
2022/07/12 03:01:16;;;;;;;9.57;3.83;;;;;;;14.55;89.10;101640.09;5029283;28;20202;-81
2022/07/12 03:03:43;;;;;;;10.93;4.27;;;;;;;14.57;89.51;101646.22;5026280;28;20207;-82
2022/07/12 03:06:12;;;;;;;7.20;4.37;;;;;;;14.57;89.89;101646.22;5030404;28;20238;-81
2022/07/12 03:08:39;;;;;;;9.13;3.83;;;;;;;14.58;90.26;101653.31;5040727;28;20206;-81
2022/07/12 03:11:05;;;;;;;8.63;4.27;;;;;;;14.62;90.40;101663.84;5039425;28;20198;-80
2022/07/12 03:13:32;;;;;;;9.13;3.70;;;;;;;14.63;90.17;101669.09;5041716;28;20606;-80
2022/07/12 03:15:59;;;;;;;6.00;4.03;;;;;;;14.64;90.30;101673.50;5036019;28;20230;-81
2022/07/12 03:18:26;;;;;;;8.70;4.33;;;;;;;14.65;90.34;101675.22;5036627;28;20210;-81
2022/07/12 03:20:52;;;;;;;10.80;3.70;;;;;;;14.66;90.79;101681.47;5033793;28;20214;-80
2022/07/12 03:23:20;;;;;;;9.87;4.00;;;;;;;14.68;90.74;101692.94;5035204;28;20959;-82
2022/07/12 03:25:47;;;;;;;7.03;3.60;;;;;;;14.67;90.75;101688.53;5030564;28;20857;-79
2022/07/12 03:28:13;;;;;;;10.63;3.67;;;;;;;14.65;90.98;101685.97;5037659;28;20208;-82
2022/07/12 03:30:40;;;;;;;12.80;4.10;;;;;;;14.67;91.03;101683.19;5040437;28;20574;-80
2022/07/12 03:33:07;;;;;;;22.47;4.33;;;;;;;14.66;91.34;101682.31;5030776;28;20198;-81
2022/07/12 03:35:35;;;;;;;18.20;4.73;;;;;;;14.66;91.14;101695.72;5034050;28;20282;-81
2022/07/12 03:38:01;;;;;;;11.80;4.07;;;;;;;14.66;91.46;101689.50;5035049;28;20692;-80
2022/07/12 03:40:34;;;;;;;20.03;4.63;;;;;;;14.65;91.21;101694.00;5039600;28;20216;-79
2022/07/12 03:43:00;;;;;;;16.10;3.87;;;;;;;14.65;91.33;101694.00;5030727;28;20220;-82
2022/07/12 03:45:27;;;;;;;18.47;4.70;;;;;;;14.65;91.38;101695.81;5031818;28;20222;-80
2022/07/12 03:47:54;;;;;;;17.90;4.03;;;;;;;14.66;91.35;101709.13;5028635;28;20780;-80
2022/07/12 03:50:20;;;;;;;25.10;4.37;;;;;;;14.68;91.41;101714.41;5030955;28;20202;-81
2022/07/12 03:52:47;;;;;;;18.10;4.23;;;;;;;14.69;92.03;101719.63;5029167;28;20685;-79
2022/07/12 03:55:14;;;;;;;15.77;4.47;;;;;;;14.72;92.16;101718.59;5024654;28;20226;-80
2022/07/12 03:57:42;;;;;;;25.77;5.37;;;;;;;14.75;92.18;101721.06;5029408;28;20716;-81
2022/07/12 04:00:11;;;;;;;18.80;4.23;;;;;;;14.75;92.03;101721.06;5028599;28;20224;-80
2022/07/12 04:02:39;;;;;;;9.20;3.60;;;;;;;14.74;91.80;101717.53;5030318;28;20769;-80
2022/07/12 04:05:07;;;;;;;9.90;4.37;;;;;;;14.75;92.27;101715.72;5032571;28;20232;-79
2022/07/12 04:07:33;;;;;;;12.50;3.80;;;;;;;14.76;92.44;101725.47;5033313;28;20706;-81
2022/07/12 04:10:00;;;;;;;17.83;4.53;;;;;;;14.78;92.30;101723.56;5034964;28;20206;-81
2022/07/12 04:12:27;;;;;;;12.57;4.70;;;;;;;14.80;92.52;101732.38;5033142;28;20221;-80
2022/07/12 04:14:55;;;;;;;11.40;4.33;;;;;;;14.82;92.58;101719.72;5028744;28;20218;-79
2022/07/12 04:17:21;;;;;;;14.97;4.43;;;;;;;14.83;92.65;101722.31;5037188;28;20688;-79
2022/07/12 04:19:48;;;;;;;12.53;4.17;;;;;;;14.86;92.70;101718.59;5037485;28;20215;-81
2022/07/12 04:22:14;;;;;;;14.60;4.50;;;;;;;14.86;92.54;101727.50;5046794;28;20213;-81
2022/07/12 04:24:41;;;;;;;16.73;4.30;;;;;;;14.86;92.69;101732.84;5036834;28;20232;-81
2022/07/12 04:27:07;;;;;;;14.87;4.47;;;;;;;14.87;92.66;101718.47;5034645;28;20202;-79
2022/07/12 04:29:34;;;;;;;13.53;4.20;;;;;;;14.88;92.53;101722.00;5035358;28;20209;-80
2022/07/12 04:32:02;;;;;;;21.57;4.40;;;;;;;14.89;92.99;101721.03;5032604;28;20210;-81
2022/07/12 04:34:28;;;;;;;9.53;4.40;;;;;;;14.90;92.81;101728.13;5044561;28;20576;-81
2022/07/12 04:36:55;;;;;;;17.63;4.87;;;;;;;14.91;92.84;101729.84;5042020;28;20237;-81
2022/07/12 04:39:22;;;;;;;16.83;4.73;;;;;;;14.92;93.37;101720.84;5028235;28;20697;-80
2022/07/12 04:41:49;;;;;;;11.77;4.20;;;;;;;14.93;93.00;101733.31;5039292;28;20297;-81
2022/07/12 04:44:15;;;;;;;10.90;4.00;;;;;;;14.93;93.19;101739.53;5030784;28;20590;-80
2022/07/12 04:46:42;;;;;;;12.40;4.73;;;;;;;14.95;93.58;101742.13;5028569;28;20218;-80
2022/07/12 04:49:10;;;;;;;13.33;3.90;;;;;;;14.96;93.40;101746.53;5031703;28;20305;-82
2022/07/12 04:51:37;;;;;;;7.23;4.60;;;;;;;14.98;93.83;101749.97;5040236;28;20205;-81
2022/07/12 04:54:03;;;;;;;13.60;4.77;;;;;;;15.01;93.52;101751.59;5026478;28;20214;-79
2022/07/12 04:56:30;;;;;;;9.00;4.40;;;;;;;15.03;93.56;101750.56;5028992;28;20602;-81
2022/07/12 04:58:56;;;;;;;11.93;4.83;;;;;;;15.06;93.90;101750.31;5035762;28;20581;-81
2022/07/12 05:01:23;;;;;;;8.63;4.23;;;;;;;15.09;93.63;101755.50;5025869;28;20209;-82
2022/07/12 05:03:50;;;;;;;15.60;5.80;;;;;;;15.11;93.82;101753.56;5038872;28;20743;-80
2022/07/12 05:06:18;;;;;;;10.63;5.00;;;;;;;15.14;94.37;101750.72;5036617;28;20331;-81
2022/07/12 05:08:44;;;;;;;12.80;4.80;;;;;;;15.18;94.61;101749.56;5027707;28;20211;-79
2022/07/12 05:11:10;;;;;;;12.33;4.50;;;;;;;15.23;94.30;101746.53;5027958;28;20684;-80
2022/07/12 05:13:37;;;;;;;10.77;4.73;;;;;;;15.28;94.67;101752.47;5025463;28;20202;-81
2022/07/12 05:16:06;;;;;;;8.27;4.50;;;;;;;15.32;94.52;101745.09;5029472;28;20356;-80
2022/07/12 05:18:32;;;;;;;10.97;4.97;;;;;;;15.38;94.77;101755.44;5029048;28;20830;-81
2022/07/12 05:20:59;;;;;;;14.90;5.20;;;;;;;15.41;94.87;101755.22;5025863;28;20215;-80
2022/07/12 05:23:27;;;;;;;10.27;5.40;;;;;;;15.45;94.69;101752.22;5026918;28;20215;-80
2022/07/12 05:25:53;;;;;;;8.23;4.40;;;;;;;15.49;94.72;101756.44;5026306;28;20628;-80
2022/07/12 05:28:20;;;;;;;8.63;5.43;;;;;;;15.54;95.06;101756.16;5026128;28;20229;-82
2022/07/12 05:30:46;;;;;;;11.00;4.70;;;;;;;15.59;95.40;101759.38;5030042;28;20207;-81
2022/07/12 05:33:13;;;;;;;9.67;5.27;;;;;;;15.65;95.15;101764.38;5030453;28;20209;-82
2022/07/12 05:35:40;;;;;;;8.33;4.67;;;;;;;15.69;95.13;101755.16;5024788;28;20234;-81
2022/07/12 05:38:06;;;;;;;9.33;4.97;;;;;;;15.74;95.15;101762.91;5025326;28;20226;-79
2022/07/12 05:40:34;;;;;;;7.43;4.77;;;;;;;15.78;95.14;101765.25;5029900;28;20310;-80
2022/07/12 05:43:01;;;;;;;10.23;5.00;;;;;;;15.82;95.19;101766.78;5026549;28;20216;-80
2022/07/12 05:45:27;;;;;;;11.77;5.17;;;;;;;15.87;94.94;101763.78;5027552;28;20227;-82
2022/07/12 05:47:54;;;;;;;7.20;5.47;;;;;;;15.91;94.99;101760.78;5025984;28;20220;-82
2022/07/12 05:50:20;;;;;;;7.77;5.50;;;;;;;16.01;95.23;101766.38;5024276;28;20211;-81
2022/07/12 05:55:31;;;;;;;10.97;4.87;;;;;;;16.26;95.50;101773.63;5028728;28;20240;-80
2022/07/12 05:57:59;;;;;;;8.03;5.20;;;;;;;16.35;95.05;101767.59;5023719;28;20219;-80
2022/07/12 06:00:25;;;;;;;8.53;5.17;;;;;;;16.42;94.38;101763.53;5031517;28;20306;-81
2022/07/12 06:02:52;;;;;;;8.43;4.80;;;;;;;16.47;93.81;101758.69;5031373;28;20605;-80
2022/07/12 06:05:18;;;;;;;5.77;4.37;;;;;;;16.55;93.66;101764.38;5034416;28;20226;-81
2022/07/12 06:07:45;;;;;;;5.00;4.07;;;;;;;16.65;92.78;101757.44;5028776;28;20204;-80
2022/07/12 06:10:12;;;;;;;4.40;4.00;;;;;;;16.73;91.84;101762.25;5036610;28;20906;-80
2022/07/12 06:12:38;;;;;;;5.67;4.40;;;;;;;16.79;90.36;101759.13;5024238;28;20216;-81
2022/07/12 06:15:07;;;;;;;7.07;4.30;;;;;;;16.85;89.12;101760.50;5024735;28;20296;-80
2022/07/12 06:17:34;;;;;;;5.80;4.57;;;;;;;16.90;88.06;101748.44;5027839;28;20252;-81
2022/07/12 06:20:00;;;;;;;4.07;3.67;;;;;;;16.96;87.33;101745.31;5028161;28;20205;-80
2022/07/12 06:22:27;;;;;;;6.20;3.80;;;;;;;17.03;86.46;101740.31;5031318;28;20217;-81
2022/07/12 06:24:53;;;;;;;4.97;3.80;;;;;;;17.10;85.72;101746.97;5035344;28;20228;-80
2022/07/12 06:27:20;;;;;;;5.47;3.83;;;;;;;17.16;84.64;101743.84;5038949;28;20830;-81
2022/07/12 06:29:47;;;;;;;6.10;4.57;;;;;;;17.22;83.91;101746.06;5034936;28;20231;-80
2022/07/12 06:32:15;;;;;;;5.07;3.93;;;;;;;17.28;83.29;101748.31;5036048;28;20204;-80
2022/07/12 06:34:42;;;;;;;5.67;3.77;;;;;;;17.32;82.52;101738.19;5032168;28;20232;-80
2022/07/12 06:37:08;;;;;;;4.07;3.40;;;;;;;17.45;82.16;101749.75;5020655;28;20239;-81
2022/07/12 06:39:35;;;;;;;4.43;3.30;;;;;;;17.57;81.44;101735.34;5023657;28;20207;-81
2022/07/12 06:42:03;;;;;;;3.30;3.00;;;;;;;17.79;80.91;101740.00;5023985;28;20311;-79
2022/07/12 06:44:30;;;;;;;3.23;2.93;;;;;;;17.96;79.04;101744.97;5033780;28;20219;-79
2022/07/12 06:46:57;;;;;;;5.00;3.83;;;;;;;18.04;77.00;101750.66;5035234;28;20643;-80
2022/07/12 06:49:25;;;;;;;3.40;3.10;;;;;;;18.08;75.38;101751.28;5033902;28;20204;-80
2022/07/12 06:51:52;;;;;;;5.93;3.60;;;;;;;18.10;74.81;101737.66;5034014;28;20232;-80
2022/07/12 06:54:18;;;;;;;3.00;2.70;;;;;;;18.14;74.47;101752.63;5033739;28;20314;-81
2022/07/12 06:56:45;;;;;;;3.27;2.97;;;;;;;18.14;74.02;101752.63;5033283;28;20217;-80
2022/07/12 06:59:11;;;;;;;3.30;3.00;;;;;;;18.16;73.90;101756.06;5034380;28;20218;-81
2022/07/12 07:01:38;;;;;;;3.13;2.90;;;;;;;18.17;73.54;101761.31;5034135;28;20209;-80
2022/07/12 07:04:05;;;;;;;3.67;2.60;;;;;;;18.18;73.16;101751.41;5033489;28;20206;-80
2022/07/12 07:06:33;;;;;;;3.77;3.47;;;;;;;18.21;73.02;101752.03;5033486;28;20323;-80
2022/07/12 07:08:59;;;;;;;3.27;3.00;;;;;;;18.27;72.74;101759.63;5034154;28;20209;-80
2022/07/12 07:11:27;;;;;;;3.23;2.57;;;;;;;18.34;72.10;101755.47;5033851;28;20206;-79
2022/07/12 07:13:55;;;;;;;4.50;3.37;;;;;;;18.38;71.60;101759.66;5034377;28;20205;-80
2022/07/12 07:16:23;;;;;;;3.90;2.77;;;;;;;18.46;71.17;101755.47;5033271;28;20237;-80
2022/07/12 07:18:50;;;;;;;3.07;2.80;;;;;;;18.46;70.13;101767.13;5033330;28;20382;-80
2022/07/12 07:21:16;;;;;;;4.43;2.90;;;;;;;18.46;69.53;101755.47;5033321;28;20212;-80
2022/07/12 07:23:44;;;;;;;7.00;3.80;;;;;;;18.50;69.32;101763.22;5033824;28;20207;-79
2022/07/12 07:26:11;;;;;;;4.37;3.03;;;;;;;18.63;69.58;101757.75;5033937;28;20414;-80
2022/07/12 07:30:52;;;;;;;4.07;2.67;;;;;;;18.81;68.99;101758.13;5033985;28;20318;-79
2022/07/12 07:31:23;;;;;;;3.43;3.00;;;;;;;18.98;68.00;101761.19;5033565;28;20212;-79
2022/07/12 07:33:49;;;;;;;2.80;2.60;;;;;;;19.14;67.78;101754.53;5034150;28;20277;-80
2022/07/12 07:36:16;;;;;;;2.80;2.60;;;;;;;19.32;67.10;101751.16;5033766;28;20232;-80
2022/07/12 07:38:44;;;;;;;4.20;2.77;;;;;;;19.49;65.34;101744.38;5033588;28;20239;-81
2022/07/12 07:41:10;;;;;;;2.57;2.23;;;;;;;19.65;65.12;101742.13;5033476;28;20565;-80
2022/07/12 07:43:37;;;;;;;3.33;2.60;;;;;;;19.82;64.62;101750.66;5033282;28;20212;-80
2022/07/12 07:46:03;;;;;;;4.23;3.10;;;;;;;19.97;64.38;101747.50;5033668;28;20230;-81
2022/07/12 07:48:30;;;;;;;3.57;3.10;;;;;;;20.09;64.28;101746.44;5034041;28;20251;-80
2022/07/12 07:50:56;;;;;;;2.80;2.50;;;;;;;20.20;63.64;101745.53;5034150;28;20200;-80
2022/07/12 07:53:25;;;;;;;3.40;2.90;;;;;;;20.28;62.91;101750.25;5033363;28;20217;-79
2022/07/12 07:55:53;;;;;;;3.50;2.88;;;;;;;20.33;62.31;101756.13;5036387;28;20233;-80
2022/07/12 07:58:20;;;;;;;2.95;2.60;;;;;;;20.33;61.50;101748.00;5036681;28;20229;-78
2022/07/12 08:00:47;;;;;;;3.70;3.00;;;;;;;20.37;61.42;101752.19;5036902;28;20293;-81
2022/07/12 08:03:13;;;;;;;3.70;3.00;;;;;;;20.44;60.76;101748.81;5036746;28;20657;-79
2022/07/12 08:05:40;;;;;;;4.10;2.65;;;;;;;20.50;60.61;101741.16;5048763;28;20778;-79
2022/07/12 08:08:06;;;;;;;2.95;2.65;;;;;;;20.57;60.02;101745.91;5048086;28;20209;-80
2022/07/12 08:10:33;;;;;;;2.72;2.25;;;;;;;20.68;59.40;101742.22;5032896;28;20225;-80
2022/07/12 08:13:01;;;;;;;3.30;2.55;;;;;;;20.84;59.97;101741.72;5037189;28;20206;-78
2022/07/12 08:15:28;;;;;;;2.70;2.50;;;;;;;21.03;58.97;101744.50;5036753;28;20228;-80
2022/07/12 08:17:54;;;;;;;3.08;2.72;;;;;;;21.13;58.20;101739.97;5033695;28;20221;-78
2022/07/12 08:20:21;;;;;;;3.03;2.63;;;;;;;21.27;57.81;101730.63;5034318;28;20787;-81
2022/07/12 08:22:48;;;;;;;3.72;2.97;;;;;;;21.46;58.01;101730.66;5034644;28;20210;-80
2022/07/12 08:25:15;;;;;;;3.50;3.20;;;;;;;21.68;57.65;101734.91;5029896;28;20298;-79
2022/07/12 08:27:42;;;;;;;4.00;3.70;;;;;;;21.84;56.90;101740.66;5038372;28;20210;-79
2022/07/12 08:30:11;;;;;;;4.50;3.85;;;;;;;21.98;56.52;101742.91;5035491;28;20198;-79
2022/07/12 08:32:38;;;;;;;3.92;3.63;;;;;;;22.10;56.25;101741.78;5024754;28;20241;-80
2022/07/12 08:35:05;;;;;;;4.47;3.70;;;;;;;22.24;55.60;101737.72;5043816;28;20221;-79
2022/07/12 08:37:32;;;;;;;4.18;3.70;;;;;;;22.36;54.59;101723.00;5054726;28;20208;-79
2022/07/12 08:39:58;;;;;;;4.20;3.42;;;;;;;22.50;53.96;101727.97;5043487;28;20778;-79
2022/07/12 08:42:25;;;;;;;4.10;3.70;;;;;;;22.61;53.51;101735.06;5041512;28;20217;-78
2022/07/12 08:44:55;;;;;;;3.97;3.67;;;;;;;22.75;53.85;101734.56;5040190;28;20229;-80
2022/07/12 08:47:24;;;;;;;4.65;4.13;;;;;;;22.88;53.27;101733.41;5032849;28;20692;-78
2022/07/12 08:50:17;;;;;;;3.67;3.38;;;;;;;22.97;52.49;101730.63;5033212;28;20240;-79
2022/07/12 08:52:46;;;;;;;4.68;3.80;;;;;;;22.99;51.69;101730.47;5042392;28;20251;-80
2022/07/12 08:55:21;;;;;;;3.65;3.35;;;;;;;23.02;51.52;101732.91;5053749;28;20221;-80
2022/07/12 08:57:49;;;;;;;6.32;3.15;;;;;;;23.01;50.86;101729.31;5032094;28;20217;-80
2022/07/12 09:00:16;;;;;;;3.35;3.05;;;;;;;23.04;50.34;101728.16;5040021;28;20210;-79
2022/07/12 09:02:51;;;;;;;3.85;3.40;;;;;;;23.06;50.30;101727.00;5029679;28;20213;-80
2022/07/12 09:05:18;;;;;;;3.00;2.70;;;;;;;23.13;50.32;101729.97;5047593;28;20225;-79
2022/07/12 09:07:45;;;;;;;3.17;2.80;;;;;;;23.22;50.19;101725.47;5033619;28;20213;-79
2022/07/12 09:10:13;;;;;;;3.47;3.17;;;;;;;23.32;50.21;101720.81;5013721;28;20210;-79
2022/07/12 09:12:41;;;;;;;3.10;2.78;;;;;;;23.45;49.84;101726.75;5033516;28;20205;-79
2022/07/12 09:15:15;;;;;;;4.25;3.85;;;;;;;23.53;49.12;101725.00;5042072;28;20221;-78
2022/07/12 09:17:47;;;;;;;3.47;3.17;;;;;;;23.55;48.84;101719.41;5038670;28;20687;-78
2022/07/12 09:20:16;;;;;;;3.70;3.40;;;;;;;23.60;49.38;101716.22;5036265;28;20221;-80
2022/07/12 09:22:51;;;;;;;3.50;3.20;;;;;;;23.68;49.71;101713.56;5032493;28;20220;-79
2022/07/12 09:25:18;;;;;;;3.40;3.10;;;;;;;23.78;48.85;101717.91;5029723;28;20264;-78
2022/07/12 09:27:49;;;;;;;3.38;3.10;;;;;;;23.87;48.53;101719.69;5046086;28;20216;-78
2022/07/12 09:30:16;;;;;;;3.13;2.70;;;;;;;23.91;47.83;101722.09;5033837;28;20210;-78
2022/07/12 09:38:20;;;;;;;3.22;2.90;;;;;;;24.06;48.62;101726.78;5041342;28;20717;-78
2022/07/12 09:40:47;;;;;;;3.25;2.40;;;;;;;24.15;47.85;101720.41;5044732;28;20200;-78
2022/07/12 09:43:15;;;;;;;2.47;2.28;;;;;;;24.20;47.70;101711.75;5033707;28;20596;-80
2022/07/12 09:45:43;;;;;;;3.45;3.15;;;;;;;24.30;47.68;101712.53;5052854;28;20743;-79
2022/07/12 09:48:11;;;;;;;4.03;2.75;;;;;;;24.38;47.00;101709.00;5031647;28;20281;-79
2022/07/12 09:50:39;;;;;;;3.17;2.88;;;;;;;24.44;46.07;101706.50;5031516;28;20197;-79
2022/07/12 09:53:06;;;;;;;2.97;2.75;;;;;;;24.49;45.97;101715.03;5026482;28;20217;-79
2022/07/12 09:55:35;;;;;;;2.92;2.72;;;;;;;24.52;45.93;101711.16;5025350;28;20225;-79
2022/07/12 09:58:03;;;;;;;2.63;2.42;;;;;;;24.57;45.97;101706.91;5024649;28;20590;-77
2022/07/12 10:00:30;;;;;;;5.63;2.40;;;;;;;24.64;46.14;101708.97;5033339;28;20202;-78
2022/07/12 10:03:00;;;;;;;2.80;2.45;;;;;;;24.70;46.35;101692.84;5032077;28;20821;-78
2022/07/12 10:05:28;;;;;;;2.42;2.22;;;;;;;24.84;46.37;101697.66;5031263;28;20222;-79
2022/07/12 10:07:57;;;;;;;2.60;2.35;;;;;;;24.95;45.80;101691.06;5029434;28;20737;-79
2022/07/12 10:10:25;;;;;;;2.72;2.53;;;;;;;25.05;45.55;101691.81;5036036;28;20209;-78
2022/07/12 10:12:52;;;;;;;2.40;2.20;;;;;;;25.16;45.51;101694.22;5031224;28;20205;-79
2022/07/12 10:15:23;;;;;;;2.47;2.28;;;;;;;25.24;45.31;101696.97;5044030;28;20624;-79
2022/07/12 10:17:55;;;;;;;2.22;2.08;;;;;;;25.32;44.80;101698.84;5046884;28;20259;-79
2022/07/12 10:20:24;;;;;;;2.92;2.17;;;;;;;25.38;44.33;101687.28;5027892;28;20212;-78
2022/07/12 10:22:53;;;;;;;2.10;1.92;;;;;;;25.42;44.00;101693.25;5031609;28;20202;-79
2022/07/12 10:25:31;;;;;;;2.92;2.08;;;;;;;25.50;44.13;101691.38;5041054;28;20226;-79
2022/07/12 10:27:59;;;;;;;1.50;1.40;;;;;;;25.61;43.28;101692.94;5031093;28;20248;-78
2022/07/12 10:30:26;;;;;;;1.70;1.50;;;;;;;25.70;41.86;101691.06;5041287;28;20237;-78
2022/07/12 10:32:56;;;;;;;1.70;1.60;;;;;;;25.76;41.07;101693.97;5037158;28;20218;-80
2022/07/12 10:35:24;;;;;;;2.47;1.80;;;;;;;25.83;40.88;101696.84;5051447;28;20715;-78
2022/07/12 10:38:17;;;;;;;2.35;1.90;;;;;;;25.93;41.86;101686.63;5051574;28;20606;-80
2022/07/12 10:40:46;;;;;;;1.63;1.52;;;;;;;26.07;41.67;101690.53;5037027;28;20190;-78
2022/07/12 10:43:18;;;;;;;1.50;1.40;;;;;;;26.22;41.36;101692.38;5036382;28;20208;-80
2022/07/12 10:45:47;;;;;;;1.65;1.40;;;;;;;26.30;40.01;101687.97;5033765;28;20225;-78
2022/07/12 10:48:22;;;;;;;1.40;1.30;;;;;;;26.26;39.57;101679.22;5031047;28;20206;-76
2022/07/12 10:50:59;;;;;;;2.80;1.60;;;;;;;26.29;40.47;101678.91;5025647;28;20197;-79
2022/07/12 10:53:29;;;;;;;1.92;1.80;;;;;;;26.39;40.55;101675.97;5032275;28;20204;-79
2022/07/12 10:56:18;;;;;;;2.00;1.80;;;;;;;26.51;40.34;101663.66;5031126;28;20214;-79
2022/07/12 10:58:47;;;;;;;1.92;1.67;;;;;;;26.60;40.18;101671.63;5011615;28;20222;-78
2022/07/12 11:01:16;;;;;;;1.73;1.60;;;;;;;26.71;39.75;101666.78;5028351;28;20202;-78
2022/07/12 11:03:45;;;;;;;1.67;1.58;;;;;;;26.80;39.99;101661.13;5048386;28;20795;-78
2022/07/12 11:06:14;;;;;;;1.70;1.50;;;;;;;26.88;39.86;101669.25;5032770;28;20232;-79
2022/07/12 11:08:55;;;;;;;2.13;1.90;;;;;;;26.94;39.80;101663.13;5031620;28;20221;-79
2022/07/12 11:11:25;;;;;;;1.77;1.63;;;;;;;26.98;39.26;101651.84;5046000;28;20202;-78
2022/07/12 11:13:51;;;;;;;1.60;1.50;;;;;;;26.98;39.63;101644.50;5030761;28;20198;-78
2022/07/12 11:16:19;;;;;;;2.17;1.60;;;;;;;27.03;39.76;101641.22;5031859;28;20590;-77
2022/07/12 11:18:45;;;;;;;1.52;1.40;;;;;;;27.08;39.85;101634.16;5032501;28;20224;-78
2022/07/12 11:21:12;;;;;;;3.20;1.58;;;;;;;27.15;39.26;101626.94;5028173;28;20779;-78
2022/07/12 11:23:41;;;;;;;1.80;1.70;;;;;;;27.26;39.13;101631.97;5035170;28;20573;-78
2022/07/12 11:26:09;;;;;;;1.98;1.88;;;;;;;27.37;38.57;101629.84;5035124;28;20218;-78
2022/07/12 11:28:37;;;;;;;2.17;1.60;;;;;;;27.43;38.47;101629.97;5032457;28;20644;-78
2022/07/12 11:31:06;;;;;;;3.88;1.92;;;;;;;27.50;38.36;101628.19;5035091;28;20205;-77
2022/07/12 11:33:34;;;;;;;1.70;1.60;;;;;;;27.59;38.18;101632.59;5025980;28;20699;-78